Time;durP1;ratioP1;P1;durP2;ratioP2;P2;SDS_P1;SDS_P2;PMS_P1;PMS_P2;Temp;Humidity;BMP_temperature;BMP_pressure;BME280_temperature;BME280_humidity;BME280_pressure;Samples;Min_cycle;Max_cycle;Signal;HPM_P1;HPM_P2
2023/09/10 00:01:11;;;;;;;9.47;8.30;;;;;;;;;;5033317;28;20470;-57
2023/09/10 00:03:39;;;;;;;9.17;8.23;;;;;;;;;;5033169;28;20489;-57
2023/09/10 00:06:07;;;;;;;12.10;8.30;;;;;;;;;;5032519;28;20517;-59
2023/09/10 00:08:35;;;;;;;9.00;8.03;;;;;;;;;;5032758;28;20482;-58
2023/09/10 00:11:02;;;;;;;10.03;9.23;;;;;;;;;;5031699;28;20454;-57
2023/09/10 00:13:30;;;;;;;9.43;8.53;;;;;;;;;;5031867;28;20474;-57
2023/09/10 00:15:57;;;;;;;9.57;8.67;;;;;;;;;;5031379;28;20516;-59
2023/09/10 00:18:26;;;;;;;9.77;8.77;;;;;;;;;;5031532;28;20943;-58
2023/09/10 00:20:54;;;;;;;9.27;8.37;;;;;;;;;;5031437;28;20477;-60
2023/09/10 00:23:22;;;;;;;9.43;8.53;;;;;;;;;;5031410;28;20438;-60
2023/09/10 00:25:49;;;;;;;9.30;8.37;;;;;;;;;;5032395;28;20462;-56
2023/09/10 00:28:16;;;;;;;9.43;8.53;;;;;;;;;;5031952;28;20470;-57
2023/09/10 00:30:44;;;;;;;11.63;9.20;;;;;;;;;;5033071;28;20504;-58
2023/09/10 00:33:11;;;;;;;9.27;8.37;;;;;;;;;;5032750;28;20442;-57
2023/09/10 00:35:40;;;;;;;9.47;8.57;;;;;;;;;;5032491;28;20531;-58
2023/09/10 00:38:07;;;;;;;9.83;8.83;;;;;;;;;;5032728;28;20474;-57
2023/09/10 00:40:34;;;;;;;8.90;8.10;;;;;;;;;;5032850;28;20531;-58
2023/09/10 00:43:01;;;;;;;10.10;9.20;;;;;;;;;;5032690;28;20473;-58
2023/09/10 00:45:29;;;;;;;9.80;8.80;;;;;;;;;;5031596;28;20470;-58
2023/09/10 00:47:56;;;;;;;9.40;8.50;;;;;;;;;;5032068;28;20481;-58
2023/09/10 00:50:24;;;;;;;8.87;8.07;;;;;;;;;;5032373;28;20500;-58
2023/09/10 00:52:56;;;;;;;9.70;8.47;;;;;;;;;;5032332;28;20481;-58
2023/09/10 00:55:24;;;;;;;9.30;8.37;;;;;;;;;;5032397;28;20557;-59
2023/09/10 00:57:52;;;;;;;9.33;8.43;;;;;;;;;;5031858;28;20891;-59
2023/09/10 01:00:19;;;;;;;9.57;8.67;;;;;;;;;;5031405;28;21011;-58
2023/09/10 01:02:47;;;;;;;10.00;9.00;;;;;;;;;;5030589;28;20478;-59
2023/09/10 01:05:14;;;;;;;9.00;8.10;;;;;;;;;;5030254;28;20501;-58
2023/09/10 01:07:41;;;;;;;9.00;8.10;;;;;;;;;;5029767;28;20517;-60
2023/09/10 01:10:10;;;;;;;10.03;9.10;;;;;;;;;;5030663;28;20536;-58
2023/09/10 01:12:42;;;;;;;9.40;8.60;;;;;;;;;;5030534;28;20485;-61
2023/09/10 01:15:10;;;;;;;9.50;8.60;;;;;;;;;;5031233;28;20494;-59
2023/09/10 01:17:40;;;;;;;12.80;9.77;;;;;;;;;;5031398;28;20439;-60
2023/09/10 01:20:25;;;;;;;9.30;8.50;;;;;;;;;;5031631;28;20874;-57
2023/09/10 01:23:00;;;;;;;9.57;8.70;;;;;;;;;;5031693;28;20536;-59
2023/09/10 01:25:28;;;;;;;10.40;8.70;;;;;;;;;;5031649;28;20547;-59
2023/09/10 01:27:56;;;;;;;9.43;8.60;;;;;;;;;;5030616;28;20982;-59
2023/09/10 01:30:23;;;;;;;9.73;8.80;;;;;;;;;;5031907;28;20446;-57
2023/09/10 01:32:53;;;;;;;8.90;8.10;;;;;;;;;;5031402;28;20482;-59
2023/09/10 01:35:21;;;;;;;9.40;8.60;;;;;;;;;;5031482;28;20817;-58
2023/09/10 01:37:56;;;;;;;10.53;9.47;;;;;;;;;;5031124;28;20466;-59
2023/09/10 01:40:23;;;;;;;10.20;9.20;;;;;;;;;;5031327;28;20486;-58
2023/09/10 01:42:52;;;;;;;11.00;9.00;;;;;;;;;;5031177;28;20478;-58
2023/09/10 01:45:20;;;;;;;9.90;7.90;;;;;;;;;;5031247;28;20996;-59
2023/09/10 01:47:47;;;;;;;9.33;8.43;;;;;;;;;;5031134;28;20536;-60
2023/09/10 01:50:15;;;;;;;9.50;8.50;;;;;;;;;;5031254;28;20446;-59
2023/09/10 01:52:42;;;;;;;8.77;7.97;;;;;;;;;;5031368;28;20526;-58
2023/09/10 01:55:10;;;;;;;9.20;8.40;;;;;;;;;;5031301;28;20470;-57
2023/09/10 01:57:37;;;;;;;8.73;7.83;;;;;;;;;;5031003;28;20954;-60
2023/09/10 02:00:07;;;;;;;9.17;8.27;;;;;;;;;;5031191;28;20512;-57
2023/09/10 02:02:35;;;;;;;9.67;8.87;;;;;;;;;;5031108;28;20450;-57
2023/09/10 02:05:03;;;;;;;10.23;8.07;;;;;;;;;;5030868;28;20882;-58
2023/09/10 02:07:30;;;;;;;9.43;8.50;;;;;;;;;;5029961;28;20485;-57
2023/09/10 02:09:58;;;;;;;9.00;8.10;;;;;;;;;;5030419;28;20511;-57
2023/09/10 02:12:25;;;;;;;9.70;8.77;;;;;;;;;;5030127;28;20442;-59
2023/09/10 02:14:53;;;;;;;9.80;8.90;;;;;;;;;;5030222;28;20554;-58
2023/09/10 02:17:21;;;;;;;9.97;9.07;;;;;;;;;;5029988;28;20437;-58
2023/09/10 02:19:49;;;;;;;11.03;9.10;;;;;;;;;;5031684;28;20536;-59
2023/09/10 02:22:16;;;;;;;9.30;8.50;;;;;;;;;;5029998;28;20472;-57
2023/09/10 02:24:49;;;;;;;9.40;8.50;;;;;;;;;;5029979;28;20462;-57
2023/09/10 02:27:17;;;;;;;10.40;8.73;;;;;;;;;;5030008;28;20507;-59
2023/09/10 02:29:44;;;;;;;10.27;9.27;;;;;;;;;;5029259;28;20813;-57
2023/09/10 02:32:11;;;;;;;9.43;8.37;;;;;;;;;;5029695;28;20474;-57
2023/09/10 02:34:40;;;;;;;9.90;8.90;;;;;;;;;;5029109;28;20504;-57
2023/09/10 02:37:07;;;;;;;9.43;8.57;;;;;;;;;;5029417;28;20528;-60
2023/09/10 02:39:34;;;;;;;9.30;8.40;;;;;;;;;;5029896;28;20469;-57
2023/09/10 02:42:01;;;;;;;9.63;8.37;;;;;;;;;;5029908;28;20528;-58
2023/09/10 02:44:29;;;;;;;8.40;7.67;;;;;;;;;;5029679;28;20812;-56
2023/09/10 02:46:56;;;;;;;10.17;9.17;;;;;;;;;;5029209;28;20509;-58
2023/09/10 02:49:24;;;;;;;8.80;7.90;;;;;;;;;;5030036;28;20474;-57
2023/09/10 02:51:54;;;;;;;9.83;8.90;;;;;;;;;;5029537;28;20450;-59
2023/09/10 02:54:21;;;;;;;9.00;8.17;;;;;;;;;;5029377;28;20450;-57
2023/09/10 02:56:48;;;;;;;9.20;8.30;;;;;;;;;;5029469;28;20470;-59
2023/09/10 02:59:20;;;;;;;9.90;8.90;;;;;;;;;;5029521;28;20532;-57
2023/09/10 03:01:47;;;;;;;8.63;7.73;;;;;;;;;;5029753;28;20453;-58
2023/09/10 03:04:15;;;;;;;10.10;9.20;;;;;;;;;;5029660;28;20470;-57
2023/09/10 03:06:43;;;;;;;8.73;7.93;;;;;;;;;;5059722;22;1198931;-55
2023/09/10 03:09:12;;;;;;;8.70;7.87;;;;;;;;;;5050135;28;20508;-55
2023/09/10 03:11:40;;;;;;;9.50;8.60;;;;;;;;;;5050229;28;20455;-56
2023/09/10 03:14:07;;;;;;;9.67;8.70;;;;;;;;;;5049926;28;20705;-56
2023/09/10 03:16:34;;;;;;;9.90;9.00;;;;;;;;;;5049374;28;20497;-56
2023/09/10 03:19:02;;;;;;;9.03;7.90;;;;;;;;;;5049866;28;20651;-56
2023/09/10 03:21:29;;;;;;;10.07;8.50;;;;;;;;;;5049523;28;20445;-55
2023/09/10 03:23:57;;;;;;;9.07;7.93;;;;;;;;;;5049161;28;20926;-56
2023/09/10 03:26:26;;;;;;;8.30;7.50;;;;;;;;;;5048180;28;20543;-57
2023/09/10 03:28:53;;;;;;;9.30;8.50;;;;;;;;;;5047656;28;20515;-55
2023/09/10 03:31:20;;;;;;;8.80;7.90;;;;;;;;;;5051913;28;20884;-55
2023/09/10 03:33:48;;;;;;;10.30;9.27;;;;;;;;;;5051892;28;20485;-56
2023/09/10 03:36:15;;;;;;;11.47;8.90;;;;;;;;;;5051266;28;20489;-56
2023/09/10 03:38:42;;;;;;;13.20;9.63;;;;;;;;;;5051485;28;20469;-55
2023/09/10 03:41:09;;;;;;;9.03;8.23;;;;;;;;;;5052902;28;20449;-55
2023/09/10 03:43:40;;;;;;;8.50;7.70;;;;;;;;;;5053211;28;20884;-56
2023/09/10 03:46:07;;;;;;;8.50;7.70;;;;;;;;;;5052656;28;20564;-56
2023/09/10 03:48:34;;;;;;;10.00;8.97;;;;;;;;;;5052511;28;20504;-55
2023/09/10 03:51:01;;;;;;;9.60;8.60;;;;;;;;;;5053426;28;20472;-56
2023/09/10 03:53:28;;;;;;;8.90;8.07;;;;;;;;;;5053032;28;20532;-57
2023/09/10 03:55:56;;;;;;;8.93;8.03;;;;;;;;;;5052359;28;20473;-56
2023/09/10 03:58:23;;;;;;;9.13;8.33;;;;;;;;;;5053044;28;20473;-57
2023/09/10 04:00:52;;;;;;;7.80;7.00;;;;;;;;;;5052887;28;20967;-55
2023/09/10 04:03:19;;;;;;;9.23;8.33;;;;;;;;;;5052777;28;20496;-56
2023/09/10 04:05:46;;;;;;;9.70;8.67;;;;;;;;;;5052566;28;20481;-55
2023/09/10 04:08:14;;;;;;;9.40;8.40;;;;;;;;;;5052653;28;20513;-55
2023/09/10 04:10:41;;;;;;;9.63;8.00;;;;;;;;;;5052550;28;20536;-57
2023/09/10 04:13:08;;;;;;;9.00;8.10;;;;;;;;;;5051375;28;20542;-56
2023/09/10 04:15:36;;;;;;;9.50;8.50;;;;;;;;;;5050104;28;20477;-55
2023/09/10 04:18:05;;;;;;;10.47;8.40;;;;;;;;;;5050739;28;20974;-55
2023/09/10 04:20:32;;;;;;;9.07;8.17;;;;;;;;;;5051198;28;20524;-57
2023/09/10 04:23:00;;;;;;;9.10;8.20;;;;;;;;;;5051220;28;20445;-56
2023/09/10 04:25:27;;;;;;;9.17;8.20;;;;;;;;;;5050912;28;20497;-55
2023/09/10 04:27:54;;;;;;;9.17;8.07;;;;;;;;;;5050168;28;21002;-57
2023/09/10 04:30:21;;;;;;;9.07;7.87;;;;;;;;;;5052203;28;20884;-57
2023/09/10 04:32:49;;;;;;;8.90;7.73;;;;;;;;;;5052156;28;20536;-56
2023/09/10 04:35:18;;;;;;;8.77;7.93;;;;;;;;;;5052267;28;20492;-55
2023/09/10 04:37:45;;;;;;;9.27;8.37;;;;;;;;;;5051733;28;20477;-55
2023/09/10 04:40:13;;;;;;;8.73;7.70;;;;;;;;;;5051359;28;20524;-55
2023/09/10 04:42:40;;;;;;;9.90;9.00;;;;;;;;;;5051342;28;20479;-55
2023/09/10 04:45:08;;;;;;;9.33;7.50;;;;;;;;;;5052083;28;20504;-55
2023/09/10 04:47:35;;;;;;;9.30;8.50;;;;;;;;;;5051715;28;20509;-55
2023/09/10 04:50:03;;;;;;;8.87;8.03;;;;;;;;;;5051447;28;20445;-55
2023/09/10 04:52:31;;;;;;;9.73;8.67;;;;;;;;;;5052142;28;20450;-55
2023/09/10 04:54:59;;;;;;;8.50;7.70;;;;;;;;;;5051875;28;20978;-57
2023/09/10 04:57:27;;;;;;;9.70;8.30;;;;;;;;;;5051654;28;20500;-57
2023/09/10 04:59:54;;;;;;;8.50;7.67;;;;;;;;;;5051615;28;20473;-57
2023/09/10 05:02:21;;;;;;;8.67;7.87;;;;;;;;;;5051966;28;20503;-56
2023/09/10 05:04:49;;;;;;;8.27;7.47;;;;;;;;;;5051376;28;20465;-55
2023/09/10 05:07:16;;;;;;;9.17;8.27;;;;;;;;;;5051126;28;20873;-56
2023/09/10 05:09:44;;;;;;;8.50;7.70;;;;;;;;;;5051107;28;20501;-56
2023/09/10 05:12:12;;;;;;;9.37;7.63;;;;;;;;;;5051028;28;20484;-55
2023/09/10 05:14:39;;;;;;;10.00;7.87;;;;;;;;;;5051462;28;20485;-56
2023/09/10 05:17:06;;;;;;;9.57;8.40;;;;;;;;;;5051750;28;20523;-56
2023/09/10 05:19:33;;;;;;;10.10;9.10;;;;;;;;;;5050879;28;20446;-55
2023/09/10 05:22:01;;;;;;;8.60;7.80;;;;;;;;;;5050996;28;20808;-56
2023/09/10 05:24:28;;;;;;;8.90;8.10;;;;;;;;;;5050690;28;20472;-56
2023/09/10 05:26:56;;;;;;;8.83;8.03;;;;;;;;;;5050756;28;20461;-56
2023/09/10 05:29:26;;;;;;;8.60;7.80;;;;;;;;;;5049295;28;20590;-56
2023/09/10 05:31:53;;;;;;;9.90;8.90;;;;;;;;;;5050968;28;20515;-56
2023/09/10 05:34:20;;;;;;;9.80;8.80;;;;;;;;;;5051312;28;20445;-55
2023/09/10 05:36:48;;;;;;;9.13;7.90;;;;;;;;;;5050288;28;20535;-55
2023/09/10 05:39:15;;;;;;;8.80;7.90;;;;;;;;;;5050746;28;20446;-56
2023/09/10 05:41:43;;;;;;;8.17;7.37;;;;;;;;;;5050781;28;20457;-55
2023/09/10 05:44:10;;;;;;;8.60;7.77;;;;;;;;;;5051303;28;20474;-55
2023/09/10 05:46:38;;;;;;;9.40;8.50;;;;;;;;;;5050149;28;20975;-55
2023/09/10 05:49:05;;;;;;;8.20;7.40;;;;;;;;;;5049895;28;20542;-55
2023/09/10 05:51:32;;;;;;;8.87;8.00;;;;;;;;;;5050414;28;20994;-55
2023/09/10 05:53:59;;;;;;;8.40;7.60;;;;;;;;;;5042601;28;20437;-56
2023/09/10 05:56:27;;;;;;;9.10;8.20;;;;;;;;;;5050203;28;20469;-57
2023/09/10 05:58:54;;;;;;;8.27;7.47;;;;;;;;;;5050130;28;20499;-56
2023/09/10 06:01:23;;;;;;;10.10;9.10;;;;;;;;;;5050461;28;20799;-57
2023/09/10 06:03:50;;;;;;;9.40;8.50;;;;;;;;;;5050552;28;20622;-57
2023/09/10 06:06:18;;;;;;;8.93;8.03;;;;;;;;;;5050236;28;20496;-55
2023/09/10 06:08:45;;;;;;;9.10;8.20;;;;;;;;;;5050362;28;20509;-55
2023/09/10 06:11:12;;;;;;;8.57;7.73;;;;;;;;;;5050838;28;20539;-55
2023/09/10 06:13:39;;;;;;;8.13;7.23;;;;;;;;;;5050401;28;20477;-56
2023/09/10 06:16:07;;;;;;;8.73;7.93;;;;;;;;;;5049860;28;20508;-55
2023/09/10 06:18:35;;;;;;;9.83;8.70;;;;;;;;;;5050542;28;20885;-55
2023/09/10 06:21:02;;;;;;;9.73;7.80;;;;;;;;;;5050336;28;20526;-55
2023/09/10 06:23:30;;;;;;;11.10;8.73;;;;;;;;;;5050030;28;20450;-56
2023/09/10 06:25:57;;;;;;;9.73;7.73;;;;;;;;;;5049747;28;21153;-55
2023/09/10 06:28:25;;;;;;;9.43;8.60;;;;;;;;;;5049227;28;20513;-55
2023/09/10 06:30:53;;;;;;;9.47;8.43;;;;;;;;;;5050383;28;20947;-55
2023/09/10 06:33:20;;;;;;;9.40;8.13;;;;;;;;;;5050263;28;20445;-57
2023/09/10 06:35:49;;;;;;;10.03;7.90;;;;;;;;;;5049441;28;20528;-56
2023/09/10 06:38:16;;;;;;;10.30;7.53;;;;;;;;;;5049705;28;20848;-55
2023/09/10 06:40:43;;;;;;;9.13;8.23;;;;;;;;;;5050403;28;20850;-55
2023/09/10 06:43:10;;;;;;;13.63;8.47;;;;;;;;;;5050555;28;20477;-55
2023/09/10 06:45:38;;;;;;;8.30;7.43;;;;;;;;;;5049384;28;20999;-55
2023/09/10 06:48:06;;;;;;;9.33;8.17;;;;;;;;;;5047809;28;20920;-56
2023/09/10 06:50:33;;;;;;;9.23;8.43;;;;;;;;;;5049112;28;20931;-55
2023/09/10 06:53:02;;;;;;;9.30;8.30;;;;;;;;;;5049069;28;20507;-56
2023/09/10 06:55:29;;;;;;;9.60;8.60;;;;;;;;;;5049361;28;20530;-56
2023/09/10 06:57:56;;;;;;;9.07;8.23;;;;;;;;;;5049467;28;20445;-56
2023/09/10 07:00:23;;;;;;;9.97;7.40;;;;;;;;;;5049767;28;20904;-56
2023/09/10 07:02:51;;;;;;;9.37;8.47;;;;;;;;;;5049507;28;20862;-57
2023/09/10 07:05:19;;;;;;;9.30;8.40;;;;;;;;;;5051219;28;20468;-57
2023/09/10 07:07:48;;;;;;;9.57;8.77;;;;;;;;;;5052861;28;20477;-56
2023/09/10 07:10:17;;;;;;;8.03;7.23;;;;;;;;;;5053532;28;20453;-57
2023/09/10 07:12:44;;;;;;;9.47;8.47;;;;;;;;;;5053440;28;20470;-56
2023/09/10 07:15:12;;;;;;;8.87;8.07;;;;;;;;;;5052736;28;20469;-57
2023/09/10 07:17:39;;;;;;;9.37;8.47;;;;;;;;;;5052638;28;20499;-55
2023/09/10 07:20:07;;;;;;;8.10;7.33;;;;;;;;;;5052652;28;20515;-57
2023/09/10 07:22:34;;;;;;;8.60;7.80;;;;;;;;;;5052768;28;20480;-56
2023/09/10 07:25:01;;;;;;;9.60;8.70;;;;;;;;;;5052773;28;20493;-56
2023/09/10 07:27:30;;;;;;;9.20;8.23;;;;;;;;;;5053123;28;20939;-55
2023/09/10 07:29:57;;;;;;;9.00;8.10;;;;;;;;;;5052189;28;20576;-55
2023/09/10 07:32:24;;;;;;;8.50;7.60;;;;;;;;;;5051762;28;20951;-55
2023/09/10 07:34:52;;;;;;;9.20;8.30;;;;;;;;;;5052531;28;20495;-57
2023/09/10 07:37:19;;;;;;;9.83;8.83;;;;;;;;;;5052248;28;20546;-57
2023/09/10 07:39:46;;;;;;;8.43;7.60;;;;;;;;;;5052508;28;20464;-56
2023/09/10 07:42:13;;;;;;;9.40;8.40;;;;;;;;;;5052729;28;20514;-55
2023/09/10 07:44:42;;;;;;;10.17;8.93;;;;;;;;;;5052635;28;20480;-56
2023/09/10 07:47:10;;;;;;;9.30;8.07;;;;;;;;;;5052124;28;20996;-56
2023/09/10 07:49:37;;;;;;;9.67;7.90;;;;;;;;;;5052420;28;20574;-57
2023/09/10 07:52:04;;;;;;;9.50;8.50;;;;;;;;;;5050329;28;20936;-55
2023/09/10 07:54:32;;;;;;;11.50;9.67;;;;;;;;;;5051856;28;20519;-55
2023/09/10 07:56:59;;;;;;;12.00;9.03;;;;;;;;;;5050227;28;20554;-56
2023/09/10 07:59:26;;;;;;;9.20;7.47;;;;;;;;;;5050867;28;20469;-55
2023/09/10 08:01:55;;;;;;;8.80;8.00;;;;;;;;;;5051556;28;20881;-56
2023/09/10 08:04:23;;;;;;;10.80;8.33;;;;;;;;;;5051350;28;20531;-57
2023/09/10 08:06:51;;;;;;;9.40;8.60;;;;;;;;;;5047313;28;20489;-58
2023/09/10 08:09:18;;;;;;;9.80;8.80;;;;;;;;;;5049397;28;20504;-57
2023/09/10 08:11:45;;;;;;;9.53;8.63;;;;;;;;;;5051644;28;20465;-55
2023/09/10 08:14:12;;;;;;;9.43;8.53;;;;;;;;;;5052588;28;20522;-55
2023/09/10 08:16:39;;;;;;;9.77;8.87;;;;;;;;;;5049685;28;20911;-55
2023/09/10 08:19:08;;;;;;;10.23;9.20;;;;;;;;;;5051319;28;20477;-57
2023/09/10 08:21:35;;;;;;;9.10;8.27;;;;;;;;;;5052232;28;20805;-55
2023/09/10 08:24:03;;;;;;;10.40;9.40;;;;;;;;;;5052245;28;20464;-57
2023/09/10 08:26:30;;;;;;;9.27;8.47;;;;;;;;;;5051712;28;21058;-57
2023/09/10 08:28:57;;;;;;;9.03;8.17;;;;;;;;;;5051186;28;20566;-57
2023/09/10 08:31:24;;;;;;;10.20;9.30;;;;;;;;;;5047080;28;20442;-56
2023/09/10 08:33:52;;;;;;;10.70;9.33;;;;;;;;;;5045479;28;20485;-57
2023/09/10 08:36:21;;;;;;;10.40;9.40;;;;;;;;;;5043951;28;20457;-57
2023/09/10 08:38:48;;;;;;;9.50;8.60;;;;;;;;;;5048370;28;20430;-56
2023/09/10 08:41:21;;;;;;;9.97;8.97;;;;;;;;;;5046566;28;20457;-58
2023/09/10 08:43:55;;;;;;;9.67;8.80;;;;;;;;;;5047966;28;20892;-57
2023/09/10 08:46:23;;;;;;;9.73;8.80;;;;;;;;;;5044364;28;20463;-56
2023/09/10 08:48:52;;;;;;;9.40;8.50;;;;;;;;;;5046768;28;20505;-56
2023/09/10 08:51:21;;;;;;;9.90;8.90;;;;;;;;;;5041488;28;20555;-55
2023/09/10 08:53:49;;;;;;;9.47;8.57;;;;;;;;;;5046797;28;20460;-57
2023/09/10 08:56:16;;;;;;;10.57;9.47;;;;;;;;;;5047716;28;20461;-57
2023/09/10 08:58:44;;;;;;;11.77;9.57;;;;;;;;;;5046968;28;20507;-57
2023/09/10 09:01:12;;;;;;;10.20;9.20;;;;;;;;;;5047762;28;20477;-57
2023/09/10 09:03:39;;;;;;;11.60;9.60;;;;;;;;;;5046675;28;20466;-57
2023/09/10 09:06:06;;;;;;;10.97;9.90;;;;;;;;;;5051146;22;20530;-59
2023/09/10 09:08:36;;;;;;;11.70;10.50;;;;;;;;;;5023072;28;21463;-57
2023/09/10 09:11:04;;;;;;;10.67;9.77;;;;;;;;;;5025957;28;20462;-56
2023/09/10 09:13:34;;;;;;;10.40;9.40;;;;;;;;;;5028484;28;20449;-57
2023/09/10 09:16:02;;;;;;;10.70;9.80;;;;;;;;;;5026737;28;20992;-58
2023/09/10 09:18:30;;;;;;;9.93;8.90;;;;;;;;;;5025999;28;20457;-58
2023/09/10 09:20:58;;;;;;;10.93;9.93;;;;;;;;;;5025860;28;20904;-56
2023/09/10 09:23:29;;;;;;;9.83;8.87;;;;;;;;;;5027832;28;20488;-58
2023/09/10 09:25:58;;;;;;;10.50;9.60;;;;;;;;;;5027522;28;20490;-56
2023/09/10 09:28:29;;;;;;;9.47;8.60;;;;;;;;;;5018894;28;20509;-56
2023/09/10 09:30:56;;;;;;;10.27;9.27;;;;;;;;;;5026093;28;20548;-58
2023/09/10 09:33:23;;;;;;;11.00;9.90;;;;;;;;;;5028323;28;20527;-59
2023/09/10 09:35:51;;;;;;;10.90;9.93;;;;;;;;;;5012317;28;20471;-57
2023/09/10 09:38:18;;;;;;;10.20;9.20;;;;;;;;;;5009914;28;20529;-57
2023/09/10 09:40:46;;;;;;;9.53;8.63;;;;;;;;;;5024573;28;20964;-58
2023/09/10 09:43:15;;;;;;;9.93;9.03;;;;;;;;;;5026789;28;20447;-57
2023/09/10 09:45:43;;;;;;;10.57;9.47;;;;;;;;;;5025675;28;20466;-58
2023/09/10 09:48:10;;;;;;;11.20;10.10;;;;;;;;;;5026415;28;20481;-58
2023/09/10 09:50:38;;;;;;;10.70;9.70;;;;;;;;;;5027018;28;20603;-59
2023/09/10 09:53:05;;;;;;;10.03;9.13;;;;;;;;;;5026903;28;20439;-60
2023/09/10 09:55:33;;;;;;;11.03;10.03;;;;;;;;;;5027229;28;20466;-60
2023/09/10 09:58:00;;;;;;;9.80;9.00;;;;;;;;;;5026592;28;20468;-60
2023/09/10 10:00:29;;;;;;;10.77;9.87;;;;;;;;;;5027731;28;20897;-59
2023/09/10 10:02:56;;;;;;;11.37;10.30;;;;;;;;;;5027117;28;20500;-59
2023/09/10 10:05:23;;;;;;;9.73;8.93;;;;;;;;;;5027444;28;20547;-58
2023/09/10 10:07:52;;;;;;;11.00;10.00;;;;;;;;;;5027485;28;20474;-59
2023/09/10 10:10:20;;;;;;;10.17;9.27;;;;;;;;;;5026848;28;20490;-60
2023/09/10 10:12:48;;;;;;;9.87;9.07;;;;;;;;;;5027602;28;20470;-59
2023/09/10 10:15:15;;;;;;;10.17;9.17;;;;;;;;;;5026662;28;20544;-59
2023/09/10 10:17:44;;;;;;;10.00;9.13;;;;;;;;;;5025617;28;20488;-57
2023/09/10 10:20:12;;;;;;;9.97;9.17;;;;;;;;;;5025898;28;20945;-58
2023/09/10 10:22:40;;;;;;;10.00;9.10;;;;;;;;;;5026029;28;20525;-58
2023/09/10 10:25:08;;;;;;;11.00;10.00;;;;;;;;;;5026130;28;20529;-60
2023/09/10 10:27:36;;;;;;;9.80;8.87;;;;;;;;;;5025801;28;20496;-58
2023/09/10 10:30:05;;;;;;;10.43;9.43;;;;;;;;;;5025540;28;20607;-58
2023/09/10 10:32:33;;;;;;;10.90;9.90;;;;;;;;;;5023975;28;20489;-57
2023/09/10 10:35:03;;;;;;;10.17;9.30;;;;;;;;;;5025716;28;20447;-58
2023/09/10 10:37:35;;;;;;;10.37;9.47;;;;;;;;;;5023550;28;20841;-57
2023/09/10 10:40:07;;;;;;;12.80;9.50;;;;;;;;;;5025356;28;20469;-59
2023/09/10 10:42:38;;;;;;;11.20;10.20;;;;;;;;;;5027009;28;20446;-57
2023/09/10 10:45:07;;;;;;;9.70;8.83;;;;;;;;;;5026595;28;20457;-57
2023/09/10 10:47:36;;;;;;;9.90;8.90;;;;;;;;;;5026669;28;20434;-57
2023/09/10 10:50:07;;;;;;;9.73;8.87;;;;;;;;;;5026699;28;20565;-59
2023/09/10 10:52:35;;;;;;;8.80;8.00;;;;;;;;;;5026811;28;20470;-57
2023/09/10 10:55:02;;;;;;;10.50;9.50;;;;;;;;;;5026919;28;20492;-58
2023/09/10 10:57:30;;;;;;;10.33;9.33;;;;;;;;;;5026695;28;20929;-58
2023/09/10 10:59:57;;;;;;;9.90;9.00;;;;;;;;;;5026880;28;20687;-57
2023/09/10 11:02:25;;;;;;;10.00;9.20;;;;;;;;;;5026633;28;20527;-58
2023/09/10 11:04:56;;;;;;;11.47;10.47;;;;;;;;;;5026640;28;20477;-58
2023/09/10 11:07:26;;;;;;;9.13;8.43;;;;;;;;;;5026188;28;20911;-59
2023/09/10 11:09:54;;;;;;;11.40;10.40;;;;;;;;;;5026483;28;20871;-58
2023/09/10 11:12:21;;;;;;;11.87;9.43;;;;;;;;;;5027067;28;20474;-57
2023/09/10 11:15:10;;;;;;;10.83;9.93;;;;;;;;;;5026814;28;20470;-57
2023/09/10 11:17:37;;;;;;;9.60;8.70;;;;;;;;;;5023867;28;20479;-57
2023/09/10 11:20:06;;;;;;;10.37;9.47;;;;;;;;;;5026712;28;20458;-57
2023/09/10 11:22:52;;;;;;;9.87;8.97;;;;;;;;;;5026548;28;20818;-59
2023/09/10 11:25:21;;;;;;;9.90;9.00;;;;;;;;;;5025438;28;20528;-57
2023/09/10 11:27:53;;;;;;;10.70;9.70;;;;;;;;;;5026262;28;20477;-58
2023/09/10 11:30:21;;;;;;;8.70;8.00;;;;;;;;;;5021155;28;20482;-59
2023/09/10 11:32:50;;;;;;;10.07;9.07;;;;;;;;;;5021071;28;20458;-58
2023/09/10 11:35:30;;;;;;;9.83;9.03;;;;;;;;;;5017249;28;20957;-58
2023/09/10 11:37:57;;;;;;;9.97;9.03;;;;;;;;;;5022523;28;20543;-58
2023/09/10 11:40:26;;;;;;;10.73;9.73;;;;;;;;;;5024873;28;20470;-59
2023/09/10 11:42:54;;;;;;;10.83;9.90;;;;;;;;;;5023987;28;20450;-58
2023/09/10 11:45:21;;;;;;;9.20;8.40;;;;;;;;;;5012172;28;20490;-59
2023/09/10 11:47:49;;;;;;;10.07;9.20;;;;;;;;;;5016418;28;20471;-58
2023/09/10 11:50:21;;;;;;;9.33;8.53;;;;;;;;;;5022091;28;20565;-57
2023/09/10 11:52:48;;;;;;;10.27;9.27;;;;;;;;;;5023726;28;20484;-57
2023/09/10 11:55:15;;;;;;;9.73;8.90;;;;;;;;;;5025643;28;20557;-57
2023/09/10 11:57:44;;;;;;;10.90;10.00;;;;;;;;;;5022311;28;20470;-57
2023/09/10 12:00:13;;;;;;;10.63;9.70;;;;;;;;;;5028901;28;20495;-59
2023/09/10 12:02:41;;;;;;;10.50;9.50;;;;;;;;;;5022221;28;20573;-58
2023/09/10 12:05:09;;;;;;;10.93;10.03;;;;;;;;;;5027577;28;20542;-59
2023/09/10 12:07:36;;;;;;;10.30;9.50;;;;;;;;;;5027672;28;20489;-57
2023/09/10 12:10:04;;;;;;;10.53;9.53;;;;;;;;;;5019647;28;21031;-58
2023/09/10 12:12:33;;;;;;;10.77;9.87;;;;;;;;;;5029544;28;20925;-57
2023/09/10 12:15:03;;;;;;;10.40;9.50;;;;;;;;;;5030899;28;20545;-59
2023/09/10 12:17:31;;;;;;;9.83;8.97;;;;;;;;;;5029563;28;20450;-59
2023/09/10 12:19:58;;;;;;;11.00;10.00;;;;;;;;;;5030537;28;20463;-57
2023/09/10 12:22:26;;;;;;;10.77;9.87;;;;;;;;;;5029148;28;20601;-57
2023/09/10 12:24:53;;;;;;;10.60;9.70;;;;;;;;;;5030286;28;20470;-57
2023/09/10 12:27:20;;;;;;;11.00;9.97;;;;;;;;;;5029430;28;20454;-57
2023/09/10 12:29:48;;;;;;;10.33;9.43;;;;;;;;;;5030427;28;20506;-58
2023/09/10 12:32:16;;;;;;;11.17;10.17;;;;;;;;;;5031278;28;20478;-58
2023/09/10 12:34:43;;;;;;;11.13;10.23;;;;;;;;;;5031524;28;20969;-58
2023/09/10 12:37:15;;;;;;;11.53;10.53;;;;;;;;;;5031569;28;20895;-57
2023/09/10 12:39:44;;;;;;;10.00;9.17;;;;;;;;;;5032535;28;20821;-57
2023/09/10 12:42:11;;;;;;;11.37;10.00;;;;;;;;;;5032340;28;20446;-58
2023/09/10 12:44:40;;;;;;;11.00;10.00;;;;;;;;;;5032849;28;20489;-57
2023/09/10 12:47:07;;;;;;;10.97;10.00;;;;;;;;;;5032184;28;20521;-58
2023/09/10 12:49:36;;;;;;;10.30;9.40;;;;;;;;;;5032103;28;20517;-59
2023/09/10 12:52:04;;;;;;;10.63;9.63;;;;;;;;;;5032532;28;20528;-58
2023/09/10 12:54:31;;;;;;;10.60;9.63;;;;;;;;;;5032549;28;20574;-58
2023/09/10 12:57:02;;;;;;;10.60;9.60;;;;;;;;;;5031951;28;20548;-59
2023/09/10 12:59:30;;;;;;;9.63;8.73;;;;;;;;;;5032608;28;20470;-59
2023/09/10 13:01:57;;;;;;;11.40;10.40;;;;;;;;;;5031511;28;20443;-58
2023/09/10 13:04:24;;;;;;;11.27;10.30;;;;;;;;;;5032481;28;20450;-58
2023/09/10 13:06:53;;;;;;;11.53;9.27;;;;;;;;;;5031589;28;20498;-58
2023/09/10 13:09:20;;;;;;;9.83;8.93;;;;;;;;;;5032260;28;20545;-58
2023/09/10 13:11:47;;;;;;;10.40;9.50;;;;;;;;;;5031858;28;20514;-60
2023/09/10 13:14:15;;;;;;;10.10;9.27;;;;;;;;;;5032301;28;20536;-60
2023/09/10 13:16:42;;;;;;;10.00;9.10;;;;;;;;;;5031150;28;20498;-59
2023/09/10 13:19:09;;;;;;;9.90;9.00;;;;;;;;;;5032173;28;20860;-59
2023/09/10 13:21:36;;;;;;;11.60;10.67;;;;;;;;;;5031524;28;20503;-58
2023/09/10 13:24:05;;;;;;;10.13;9.23;;;;;;;;;;5031974;28;20474;-58
2023/09/10 13:26:32;;;;;;;10.20;9.30;;;;;;;;;;5031769;28;20470;-59
2023/09/10 13:29:00;;;;;;;11.07;10.00;;;;;;;;;;5032078;28;20979;-58
2023/09/10 13:31:28;;;;;;;10.83;9.93;;;;;;;;;;5031994;28;20517;-58
2023/09/10 13:33:55;;;;;;;11.17;10.17;;;;;;;;;;5031583;28;20450;-58
2023/09/10 13:36:22;;;;;;;10.80;9.80;;;;;;;;;;5031288;28;20474;-59
2023/09/10 13:38:50;;;;;;;10.53;9.70;;;;;;;;;;5031815;28;20477;-58
2023/09/10 13:41:18;;;;;;;10.77;9.83;;;;;;;;;;5031599;28;21048;-58
2023/09/10 13:43:45;;;;;;;10.23;9.43;;;;;;;;;;5031513;28;20884;-54
2023/09/10 13:46:13;;;;;;;9.80;9.00;;;;;;;;;;5031005;28;21012;-58
2023/09/10 13:48:40;;;;;;;10.57;9.67;;;;;;;;;;5031491;28;20470;-57
2023/09/10 13:51:08;;;;;;;9.70;8.80;;;;;;;;;;5031425;28;20522;-56
2023/09/10 13:53:35;;;;;;;10.53;9.50;;;;;;;;;;5031438;28;20453;-57
2023/09/10 13:56:03;;;;;;;10.07;9.13;;;;;;;;;;5030731;28;21037;-57
2023/09/10 13:58:32;;;;;;;9.80;9.00;;;;;;;;;;5031170;28;20446;-56
2023/09/10 14:01:02;;;;;;;9.80;9.00;;;;;;;;;;5031092;28;20465;-58
2023/09/10 14:03:30;;;;;;;10.13;9.33;;;;;;;;;;5030847;28;20476;-56
2023/09/10 14:05:57;;;;;;;10.23;9.33;;;;;;;;;;5030810;28;20497;-57
2023/09/10 14:08:24;;;;;;;10.27;9.40;;;;;;;;;;5030983;28;20936;-56
2023/09/10 14:10:52;;;;;;;9.70;8.77;;;;;;;;;;5030622;28;20970;-55
2023/09/10 14:13:19;;;;;;;10.40;9.07;;;;;;;;;;5030599;28;20473;-57
2023/09/10 14:15:47;;;;;;;10.10;9.20;;;;;;;;;;5030099;28;20504;-57
2023/09/10 14:18:15;;;;;;;10.80;9.83;;;;;;;;;;5030646;28;20944;-57
2023/09/10 14:20:42;;;;;;;10.77;9.77;;;;;;;;;;5030665;28;20474;-57
2023/09/10 14:23:09;;;;;;;10.30;9.50;;;;;;;;;;5030873;28;20481;-57
2023/09/10 14:25:36;;;;;;;10.70;9.80;;;;;;;;;;5030316;28;20524;-56
2023/09/10 14:28:04;;;;;;;11.07;10.00;;;;;;;;;;5030774;28;20877;-57
2023/09/10 14:30:31;;;;;;;9.57;8.77;;;;;;;;;;5030281;28;20520;-57
2023/09/10 14:33:00;;;;;;;10.33;9.30;;;;;;;;;;5030594;28;20446;-57
2023/09/10 14:35:27;;;;;;;10.50;9.60;;;;;;;;;;5030718;28;20490;-58
2023/09/10 14:37:54;;;;;;;10.20;9.20;;;;;;;;;;5030691;28;20528;-57
2023/09/10 14:40:21;;;;;;;10.60;9.70;;;;;;;;;;5030471;28;20469;-57